Time;durP1;ratioP1;P1;durP2;ratioP2;P2;SDS_P1;SDS_P2;PMS_P1;PMS_P2;Temp;Humidity;BMP_temperature;BMP_pressure;BME280_temperature;BME280_humidity;BME280_pressure;Samples;Min_cycle;Max_cycle;Signal;HPM_P1;HPM_P2
2024/02/23 00:02:00;;;;;;;48.58;27.70;;;;;;;14.95;81.65;98894.69;5097341;28;20062;-82
2024/02/23 00:05:05;;;;;;;44.33;26.52;;;;;;;14.92;81.75;98899.66;5084799;28;20059;-80
2024/02/23 00:08:10;;;;;;;45.10;26.13;;;;;;;15.16;81.04;98880.25;5097191;28;20067;-79
2024/02/23 00:11:15;;;;;;;46.67;28.05;;;;;;;15.19;80.79;98887.13;5097163;28;20063;-79
2024/02/23 00:14:20;;;;;;;64.20;34.13;;;;;;;14.69;82.11;98893.69;5097014;28;20058;-78
2024/02/23 00:17:25;;;;;;;50.70;30.55;;;;;;;15.14;81.13;98876.09;5097041;28;20063;-79
2024/02/23 00:20:29;;;;;;;47.65;28.30;;;;;;;15.06;81.37;98868.97;5097130;28;20055;-78
2024/02/23 00:23:34;;;;;;;45.75;28.40;;;;;;;14.57;82.30;98855.56;5096255;28;20051;-77
2024/02/23 00:26:38;;;;;;;47.90;28.77;;;;;;;14.19;84.38;98848.81;5096937;28;20051;-78
2024/02/23 00:29:42;;;;;;;46.85;27.33;;;;;;;14.47;82.95;98846.97;5096695;28;20066;-78
2024/02/23 00:32:47;;;;;;;44.03;27.85;;;;;;;14.02;85.26;98842.81;5096863;28;20502;-78
2024/02/23 00:35:51;;;;;;;48.10;28.65;;;;;;;14.18;84.43;98836.31;5096757;28;20055;-79
2024/02/23 00:38:55;;;;;;;46.38;28.35;;;;;;;14.21;84.58;98839.47;5096821;28;20481;-78
2024/02/23 00:42:00;;;;;;;44.88;26.90;;;;;;;14.12;84.67;98837.94;5096659;28;20478;-78
2024/02/23 00:45:05;;;;;;;44.45;26.63;;;;;;;14.25;84.74;98839.91;5096519;28;20425;-78
2024/02/23 00:48:10;;;;;;;50.83;28.75;;;;;;;14.33;83.70;98816.34;5102440;28;20051;-78
2024/02/23 00:51:15;;;;;;;47.75;27.77;;;;;;;14.54;82.85;98820.84;5116375;28;20055;-77
2024/02/23 00:54:19;;;;;;;41.63;24.88;;;;;;;14.29;83.76;98808.81;5116913;28;20067;-79
2024/02/23 00:57:29;;;;;;;50.78;28.25;;;;;;;14.28;84.12;98796.34;5116766;28;20081;-83
2024/02/23 01:00:33;;;;;;;48.17;26.73;;;;;;;14.38;83.43;98804.13;5116637;28;20054;-83
2024/02/23 01:03:38;;;;;;;39.67;25.13;;;;;;;14.31;83.02;98804.94;5116459;28;20054;-83
2024/02/23 01:06:43;;;;;;;42.88;26.83;;;;;;;14.27;83.95;98789.25;5116014;28;20393;-82
2024/02/23 01:09:47;;;;;;;39.28;25.60;;;;;;;14.23;83.84;98780.75;5116287;28;20055;-78
2024/02/23 01:12:51;;;;;;;42.50;27.13;;;;;;;14.12;83.96;98778.56;5116425;28;20141;-81
2024/02/23 01:15:56;;;;;;;43.60;26.35;;;;;;;13.92;84.55;98758.72;5116276;28;20043;-78
2024/02/23 01:19:00;;;;;;;43.10;24.27;;;;;;;13.75;85.24;98751.91;5115418;28;20046;-82
2024/02/23 01:22:05;;;;;;;40.58;24.40;;;;;;;13.87;84.28;98733.34;5116211;28;20047;-80
2024/02/23 01:25:09;;;;;;;31.73;19.90;;;;;;;13.85;83.53;98732.72;5116057;28;20054;-80
2024/02/23 01:28:14;;;;;;;25.50;15.95;;;;;;;14.25;78.48;98732.78;5116130;28;20039;-80
2024/02/23 01:31:18;;;;;;;21.40;12.52;;;;;;;14.34;76.58;98731.63;5116077;28;20516;-82
2024/02/23 01:34:23;;;;;;;20.65;11.55;;;;;;;14.62;76.78;98738.84;5103285;28;20059;-80
2024/02/23 01:37:27;;;;;;;19.60;13.15;;;;;;;14.86;75.66;98727.56;5115966;28;20370;-79
2024/02/23 01:40:32;;;;;;;23.00;14.30;;;;;;;14.97;75.31;98726.97;5115898;28;20055;-80
2024/02/23 01:43:36;;;;;;;34.95;20.08;;;;;;;14.94;76.56;98720.09;5115956;28;20047;-79
2024/02/23 01:46:41;;;;;;;36.70;23.27;;;;;;;14.73;78.89;98722.94;5116211;28;20043;-81
2024/02/23 01:49:47;;;;;;;31.50;20.60;;;;;;;14.83;78.05;98723.41;5115042;28;20054;-82
2024/02/23 01:52:52;;;;;;;32.00;20.17;;;;;;;14.64;78.16;98718.72;5115609;28;20047;-82
2024/02/23 01:55:58;;;;;;;30.15;19.08;;;;;;;14.64;76.95;98697.13;5115636;28;20058;-79
2024/02/23 01:59:03;;;;;;;27.42;15.77;;;;;;;15.06;75.85;98703.31;5115705;28;20054;-81
2024/02/23 02:02:07;;;;;;;22.98;15.23;;;;;;;14.93;74.89;98699.53;5115528;28;20047;-79
2024/02/23 02:05:12;;;;;;;22.13;14.82;;;;;;;15.07;74.15;98677.94;5115186;28;20493;-81
2024/02/23 02:08:17;;;;;;;24.88;15.52;;;;;;;14.87;75.35;98673.31;5115477;28;20050;-81
2024/02/23 02:11:22;;;;;;;15.95;10.07;;;;;;;14.64;73.17;98666.59;5115293;28;20047;-81
2024/02/23 02:14:30;;;;;;;12.88;8.55;;;;;;;15.21;68.41;98652.63;5115004;28;20066;-81
2024/02/23 02:17:34;;;;;;;8.60;4.05;;;;;;;15.29;64.42;98638.91;5115223;28;20062;-82
2024/02/23 02:20:50;;;;;;;11.13;5.07;;;;;;;15.34;63.85;98625.59;5115264;28;20050;-80
2024/02/23 02:23:54;;;;;;;9.40;4.53;;;;;;;15.35;62.53;98624.56;5102435;28;20047;-82
2024/02/23 02:26:59;;;;;;;8.13;5.35;;;;;;;15.06;63.90;98614.94;5102613;28;20047;-82
2024/02/23 02:30:03;;;;;;;7.55;3.60;;;;;;;15.47;62.68;98609.41;5115140;28;20051;-80
2024/02/23 02:33:08;;;;;;;6.97;3.38;;;;;;;15.39;61.48;98615.00;5114890;28;20054;-82
2024/02/23 02:36:12;;;;;;;5.50;3.03;;;;;;;15.30;61.19;98619.78;5102303;28;20113;-81
2024/02/23 02:39:17;;;;;;;4.57;2.00;;;;;;;15.54;60.44;98607.53;5114772;28;20043;-79
2024/02/23 02:42:21;;;;;;;6.47;2.65;;;;;;;15.72;59.81;98609.59;5114851;28;20046;-83
2024/02/23 02:45:26;;;;;;;4.72;2.00;;;;;;;16.03;58.79;98590.81;5114529;28;20125;-79
2024/02/23 02:48:30;;;;;;;5.57;1.90;;;;;;;16.14;58.04;98598.28;5105178;28;20493;-81
2024/02/23 02:51:35;;;;;;;3.40;1.70;;;;;;;16.04;58.63;98582.50;5094178;28;20052;-78
2024/02/23 02:54:40;;;;;;;5.30;2.35;;;;;;;16.02;58.57;98562.91;5094062;28;20062;-79
2024/02/23 02:57:45;;;;;;;6.15;2.78;;;;;;;16.30;57.97;98554.47;5094064;28;20107;-82
2024/02/23 03:00:50;;;;;;;4.35;2.10;;;;;;;16.02;58.92;98557.50;5093982;28;20040;-79
2024/02/23 03:03:54;;;;;;;5.13;2.83;;;;;;;15.80;59.81;98550.69;5093634;28;20494;-80
2024/02/23 03:06:59;;;;;;;4.60;2.45;;;;;;;15.35;61.66;98541.59;5093927;28;20047;-79
2024/02/23 03:10:03;;;;;;;5.72;2.22;;;;;;;15.47;61.56;98531.84;5093892;28;20051;-82
2024/02/23 03:13:08;;;;;;;4.70;2.25;;;;;;;15.93;58.95;98529.00;5093795;28;20047;-81
2024/02/23 03:16:17;;;;;;;4.07;2.05;;;;;;;15.90;59.43;98526.72;5093510;28;20051;-79
2024/02/23 03:19:23;;;;;;;4.68;2.17;;;;;;;15.97;58.82;98505.88;5093833;28;20047;-81
2024/02/23 03:22:28;;;;;;;4.95;1.83;;;;;;;15.58;59.12;98506.00;5093965;28;20493;-81
2024/02/23 03:25:32;;;;;;;3.25;1.75;;;;;;;15.89;58.46;98508.84;5091886;28;20055;-82
2024/02/23 03:28:37;;;;;;;3.00;1.50;;;;;;;16.10;57.72;98510.41;5093761;28;20047;-80
2024/02/23 03:31:41;;;;;;;3.38;1.55;;;;;;;15.96;58.45;98488.00;5096656;28;20490;-81
2024/02/23 03:34:46;;;;;;;4.78;1.52;;;;;;;15.59;58.48;98476.06;5098050;28;20051;-78
2024/02/23 03:37:51;;;;;;;2.92;1.30;;;;;;;16.19;56.93;98472.06;5098000;28;20111;-79
2024/02/23 03:40:56;;;;;;;4.47;1.65;;;;;;;16.42;56.72;98468.78;5097902;28;20054;-78
2024/02/23 03:44:00;;;;;;;2.70;1.15;;;;;;;16.22;57.55;98463.50;5097848;28;20055;-78
2024/02/23 03:47:05;;;;;;;4.97;2.00;;;;;;;16.00;58.01;98439.66;5097642;28;20051;-79
2024/02/23 03:50:10;;;;;;;3.15;1.73;;;;;;;16.14;57.70;98454.81;5097779;28;20047;-82
2024/02/23 03:53:14;;;;;;;5.10;2.45;;;;;;;16.17;58.44;98448.97;5097727;28;20382;-81
2024/02/23 03:56:19;;;;;;;4.85;2.15;;;;;;;16.18;58.99;98443.34;5085194;28;20046;-81
2024/02/23 03:59:23;;;;;;;4.50;2.70;;;;;;;15.72;60.81;98450.84;5097657;28;20051;-82
2024/02/23 04:02:29;;;;;;;5.90;3.00;;;;;;;15.73;60.79;98432.72;5097479;28;20047;-83
2024/02/23 04:05:33;;;;;;;5.35;2.40;;;;;;;15.86;60.85;98440.78;5096943;28;20420;-82
2024/02/23 04:08:38;;;;;;;4.25;2.25;;;;;;;16.34;58.92;98416.78;5097323;28;20050;-83
2024/02/23 04:11:42;;;;;;;5.82;2.92;;;;;;;16.19;59.79;98406.28;5097321;28;20051;-81
2024/02/23 04:14:48;;;;;;;6.45;3.03;;;;;;;16.30;59.17;98432.63;5095534;28;20051;-83
2024/02/23 04:17:53;;;;;;;6.05;2.92;;;;;;;16.33;58.69;98415.97;5097161;28;20379;-83
2024/02/23 04:20:57;;;;;;;5.03;2.65;;;;;;;16.62;58.66;98417.22;5097000;28;20058;-79
2024/02/23 04:24:01;;;;;;;5.70;2.97;;;;;;;16.35;59.12;98426.56;5097062;28;20154;-84
2024/02/23 04:27:07;;;;;;;5.57;3.03;;;;;;;16.22;60.01;98430.19;5096877;28;20047;-82
2024/02/23 04:30:12;;;;;;;5.10;2.65;;;;;;;15.98;60.56;98412.84;5084084;28;20047;-77
2024/02/23 04:33:17;;;;;;;6.70;3.13;;;;;;;16.27;60.47;98401.41;5096546;28;20043;-79
2024/02/23 04:36:21;;;;;;;6.50;2.83;;;;;;;16.26;59.83;98391.66;5096740;28;20047;-81
2024/02/23 04:39:26;;;;;;;6.93;2.83;;;;;;;16.26;59.97;98380.81;5096738;28;20371;-78
2024/02/23 04:42:30;;;;;;;4.32;2.40;;;;;;;16.41;60.30;98374.25;5084137;28;20047;-78
2024/02/23 04:45:34;;;;;;;5.30;2.75;;;;;;;16.22;60.69;98382.28;5096548;28;20051;-80
2024/02/23 04:48:39;;;;;;;4.40;2.63;;;;;;;16.36;59.99;98376.78;5090921;28;20422;-82
2024/02/23 04:51:44;;;;;;;4.15;2.00;;;;;;;16.32;59.62;98359.34;5084068;28;20059;-78
2024/02/23 04:54:48;;;;;;;4.63;1.80;;;;;;;16.27;60.14;98358.09;5096284;28;20055;-82
2024/02/23 04:57:52;;;;;;;3.35;1.60;;;;;;;16.29;58.92;98349.78;5096398;28;20051;-81
2024/02/23 05:00:57;;;;;;;3.35;1.48;;;;;;;16.33;58.49;98344.72;5096313;28;20379;-79
2024/02/23 05:04:03;;;;;;;4.05;1.67;;;;;;;16.58;57.84;98342.88;5096287;28;20055;-78
2024/02/23 05:07:08;;;;;;;4.75;1.70;;;;;;;16.62;56.82;98338.69;5083743;28;20055;-80
2024/02/23 05:10:12;;;;;;;4.13;1.35;;;;;;;16.92;56.09;98312.53;5096146;28;20055;-80
2024/02/23 05:13:17;;;;;;;3.80;1.02;;;;;;;16.95;55.43;98339.19;5083631;28;20051;-83
2024/02/23 05:16:22;;;;;;;8.95;2.47;;;;;;;17.19;55.43;98337.47;5096089;28;20074;-82
2024/02/23 05:19:27;;;;;;;2.80;1.13;;;;;;;17.32;55.41;98318.34;5095969;28;20489;-83
2024/02/23 05:22:32;;;;;;;4.30;1.40;;;;;;;17.38;54.17;98320.97;5095835;28;20067;-82
2024/02/23 05:25:36;;;;;;;3.60;1.27;;;;;;;17.60;53.91;98329.50;5094368;28;20086;-79
2024/02/23 05:28:41;;;;;;;3.95;1.63;;;;;;;17.83;53.82;98347.75;5095847;28;20043;-80
2024/02/23 05:31:48;;;;;;;2.65;0.90;;;;;;;17.68;54.31;98344.63;5095623;28;20059;-80
2024/02/23 05:34:54;;;;;;;6.35;1.80;;;;;;;17.65;54.96;98345.09;5095746;28;20059;-81
2024/02/23 05:37:58;;;;;;;6.05;1.10;;;;;;;17.77;53.96;98359.53;5095595;28;20486;-81
2024/02/23 05:41:05;;;;;;;4.68;1.23;;;;;;;17.83;54.73;98347.75;5095535;28;20422;-79
2024/02/23 05:44:10;;;;;;;3.38;1.60;;;;;;;17.71;55.95;98338.72;5095508;28;20119;-81
2024/02/23 05:47:15;;;;;;;4.95;1.45;;;;;;;17.66;56.08;98328.56;5095440;28;20390;-81
2024/02/23 05:50:20;;;;;;;4.95;1.38;;;;;;;17.32;56.57;98335.44;5115765;28;20054;-80
2024/02/23 05:53:25;;;;;;;3.55;1.40;;;;;;;17.19;57.19;98330.16;5115489;28;20058;-79
2024/02/23 05:56:29;;;;;;;9.43;1.67;;;;;;;17.22;57.22;98313.44;5115678;28;20051;-81
2024/02/23 05:59:34;;;;;;;5.35;1.35;;;;;;;17.27;57.53;98340.72;5115277;28;20047;-83
2024/02/23 06:02:38;;;;;;;6.60;1.80;;;;;;;17.36;57.59;98328.50;5113778;28;20497;-78
2024/02/23 06:05:44;;;;;;;4.43;1.42;;;;;;;16.99;58.84;98337.69;5115388;28;20062;-80
2024/02/23 06:08:50;;;;;;;8.80;1.85;;;;;;;16.75;59.33;98350.22;5115087;28;20039;-81
2024/02/23 06:11:56;;;;;;;4.15;1.70;;;;;;;17.27;57.57;98367.00;5115336;28;20055;-80
2024/02/23 06:15:01;;;;;;;8.00;1.52;;;;;;;17.33;57.65;98353.34;5115172;28;20382;-79
2024/02/23 06:18:05;;;;;;;4.20;1.50;;;;;;;17.40;57.77;98348.72;5115220;28;20043;-79
2024/02/23 06:21:17;;;;;;;5.22;2.30;;;;;;;17.59;56.58;98356.84;5115123;28;20581;-81
2024/02/23 06:24:22;;;;;;;5.13;1.83;;;;;;;17.49;57.52;98365.50;5114764;28;20501;-78
2024/02/23 06:27:27;;;;;;;6.05;3.22;;;;;;;17.13;60.29;98360.91;5115052;28;20379;-81
2024/02/23 06:30:32;;;;;;;8.05;3.47;;;;;;;17.02;61.08;98377.91;5114878;28;20059;-80
2024/02/23 06:33:37;;;;;;;10.82;5.50;;;;;;;16.81;63.45;98373.72;5110686;28;20047;-80
2024/02/23 06:36:42;;;;;;;10.48;6.80;;;;;;;16.51;66.12;98356.47;5103997;28;20050;-79
2024/02/23 06:39:51;;;;;;;12.27;7.32;;;;;;;16.06;68.53;98360.34;5085894;28;20066;-80
2024/02/23 06:42:56;;;;;;;13.95;8.13;;;;;;;16.29;68.58;98342.44;5106489;27;20237;-73
2024/02/23 06:46:07;;;;;;;13.50;7.60;;;;;;;16.39;69.07;98360.94;5104725;28;20055;-73
2024/02/23 06:49:11;;;;;;;11.90;8.02;;;;;;;15.89;71.68;98365.44;5099622;28;20510;-73
2024/02/23 06:52:16;;;;;;;14.68;8.88;;;;;;;16.32;70.25;98375.56;5093254;28;20074;-72
2024/02/23 06:55:21;;;;;;;15.57;9.10;;;;;;;15.78;72.59;98382.34;5094338;27;20077;-74
2024/02/23 06:58:27;;;;;;;13.98;9.90;;;;;;;14.71;77.63;98381.19;5112203;28;20059;-79
2024/02/23 07:01:47;;;;;;;13.35;8.73;;;;;;;15.35;75.66;98386.66;5113112;28;20050;-78
2024/02/23 07:04:58;;;;;;;16.63;10.25;;;;;;;15.41;75.26;98404.72;5112820;28;20050;-79
2024/02/23 07:08:05;;;;;;;13.32;8.70;;;;;;;15.33;76.98;98413.09;5114012;28;20473;-79
2024/02/23 07:11:10;;;;;;;13.48;8.95;;;;;;;14.77;78.80;98435.19;5113803;28;20046;-80
2024/02/23 07:14:16;;;;;;;15.35;9.52;;;;;;;14.60;79.85;98433.94;5113915;28;20050;-78
2024/02/23 07:17:22;;;;;;;13.32;9.43;;;;;;;14.57;81.64;98437.03;5113866;28;20054;-79
2024/02/23 07:20:26;;;;;;;14.48;10.02;;;;;;;14.76;81.37;98448.91;5113604;28;20390;-76
2024/02/23 07:23:31;;;;;;;12.90;9.02;;;;;;;14.93;80.40;98459.09;5111971;28;20067;-74
2024/02/23 07:26:36;;;;;;;13.73;10.38;;;;;;;14.60;82.32;98460.09;5112880;28;20058;-75
2024/02/23 07:29:40;;;;;;;15.95;10.65;;;;;;;14.37;83.67;98455.06;5113652;28;20050;-75
2024/02/23 07:32:48;;;;;;;17.60;10.70;;;;;;;14.39;84.03;98473.78;5113571;28;20058;-75
2024/02/23 07:35:53;;;;;;;13.70;10.02;;;;;;;14.33;84.48;98478.13;5113513;28;20047;-76
2024/02/23 07:38:57;;;;;;;14.05;10.25;;;;;;;14.74;84.34;98491.50;5113465;28;20050;-75
2024/02/23 07:42:03;;;;;;;12.65;10.02;;;;;;;14.49;83.97;98493.13;5113499;28;20059;-76
2024/02/23 07:45:09;;;;;;;15.93;10.68;;;;;;;14.55;84.25;98490.41;5100705;28;20055;-76
2024/02/23 07:48:13;;;;;;;14.90;10.15;;;;;;;15.07;81.80;98494.19;5112910;28;20509;-79
2024/02/23 07:51:19;;;;;;;12.68;10.35;;;;;;;14.71;84.06;98508.94;5113443;28;20046;-80
2024/02/23 07:54:23;;;;;;;13.32;10.30;;;;;;;14.82;83.63;98512.88;5112362;28;20398;-80
2024/02/23 07:57:28;;;;;;;14.02;10.30;;;;;;;14.62;84.25;98517.41;5113503;28;20101;-80
2024/02/23 08:00:34;;;;;;;13.55;10.23;;;;;;;14.42;86.19;98517.38;5113219;28;20055;-79
2024/02/23 08:03:39;;;;;;;14.48;10.48;;;;;;;14.82;84.59;98512.88;5113013;28;20062;-80
2024/02/23 08:06:45;;;;;;;16.20;9.55;;;;;;;14.78;84.56;98519.75;5113228;28;20046;-80
2024/02/23 08:09:49;;;;;;;11.45;8.82;;;;;;;14.86;84.40;98512.25;5113299;28;20050;-82
2024/02/23 08:12:55;;;;;;;11.93;8.45;;;;;;;14.71;85.27;98500.00;5103477;28;20079;-82
2024/02/23 08:16:00;;;;;;;13.68;8.98;;;;;;;14.27;86.33;98503.19;5094945;28;20047;-80
2024/02/23 08:19:04;;;;;;;12.23;7.60;;;;;;;14.79;84.99;98511.44;5116518;28;20047;-81
2024/02/23 08:22:09;;;;;;;15.57;8.25;;;;;;;14.34;86.44;98514.88;5114818;27;20618;-80
2024/02/23 08:25:14;;;;;;;10.20;8.15;;;;;;;14.72;84.94;98515.16;5113191;28;20046;-82
2024/02/23 08:28:18;;;;;;;14.30;8.65;;;;;;;14.75;84.42;98512.88;5116587;28;20043;-80
2024/02/23 08:31:24;;;;;;;9.93;6.70;;;;;;;14.78;84.86;98507.06;5132981;27;20519;-79
2024/02/23 08:34:29;;;;;;;9.50;6.60;;;;;;;14.79;83.93;98503.31;5126400;27;20043;-78
2024/02/23 08:37:34;;;;;;;9.27;6.82;;;;;;;14.76;84.13;98516.44;5108159;27;20062;-81
2024/02/23 08:40:39;;;;;;;8.52;5.38;;;;;;;14.54;85.83;98518.44;5115006;28;20533;-82
2024/02/23 08:43:44;;;;;;;8.18;5.70;;;;;;;14.66;84.96;98521.41;5114886;28;20051;-83
2024/02/23 08:46:49;;;;;;;7.07;5.80;;;;;;;14.66;85.31;98524.09;5114800;28;20402;-84
2024/02/23 08:49:54;;;;;;;6.25;5.03;;;;;;;14.55;84.87;98520.13;5097459;28;20071;-81
2024/02/23 08:53:00;;;;;;;7.10;5.30;;;;;;;14.42;86.44;98528.19;5096364;28;20044;-82
2024/02/23 08:56:06;;;;;;;7.65;5.30;;;;;;;14.33;86.12;98524.00;5114423;28;20050;-82
2024/02/23 08:59:11;;;;;;;6.35;4.53;;;;;;;14.72;84.71;98526.78;5109820;28;20051;-83
2024/02/23 09:02:16;;;;;;;6.30;4.35;;;;;;;14.69;84.45;98527.19;5115008;28;20054;-82
2024/02/23 09:05:20;;;;;;;7.97;4.20;;;;;;;15.13;83.76;98532.03;5101571;28;20051;-80
2024/02/23 09:08:25;;;;;;;6.57;4.35;;;;;;;14.92;84.20;98534.91;5114441;28;20501;-83
2024/02/23 09:11:30;;;;;;;7.90;4.30;;;;;;;14.97;83.64;98532.44;5114373;28;20047;-90
2024/02/23 09:14:37;;;;;;;4.50;3.33;;;;;;;14.84;84.45;98549.47;5114381;28;20043;-82
2024/02/23 09:17:42;;;;;;;5.50;3.80;;;;;;;14.95;83.45;98546.16;5113800;28;20481;-84
2024/02/23 09:20:47;;;;;;;4.35;3.13;;;;;;;15.17;82.86;98554.91;5115397;28;20046;-80
2024/02/23 09:23:51;;;;;;;4.15;3.20;;;;;;;15.20;82.50;98562.59;5113671;28;20067;-83
2024/02/23 09:26:56;;;;;;;6.40;3.40;;;;;;;15.19;82.45;98573.59;5115210;28;20051;-86
2024/02/23 09:30:00;;;;;;;4.93;2.83;;;;;;;15.28;81.41;98577.78;5117581;27;20039;-82
2024/02/23 09:33:05;;;;;;;3.85;2.45;;;;;;;15.37;81.58;98579.22;5114886;28;20047;-84
2024/02/23 09:36:09;;;;;;;3.67;2.20;;;;;;;15.39;81.15;98577.13;5114568;28;20118;-84
2024/02/23 09:39:14;;;;;;;6.28;2.30;;;;;;;15.40;80.93;98584.22;5114665;28;20034;-80
2024/02/23 09:42:22;;;;;;;3.67;2.30;;;;;;;15.63;80.34;98577.34;5115004;28;20050;-90
2024/02/23 09:45:28;;;;;;;3.97;2.30;;;;;;;15.22;80.67;98586.69;5115141;28;20042;-82
2024/02/23 09:48:35;;;;;;;3.30;2.05;;;;;;;15.05;82.93;98577.34;5114959;28;20046;-81
2024/02/23 09:51:40;;;;;;;3.53;2.05;;;;;;;14.87;84.21;98586.03;5102647;28;20043;-82
2024/02/23 09:54:45;;;;;;;3.10;1.90;;;;;;;15.03;82.97;98593.75;5114989;28;20047;-81
2024/02/23 09:57:56;;;;;;;2.28;1.73;;;;;;;15.24;82.75;98577.34;5114750;28;20048;-83
2024/02/23 10:01:03;;;;;;;2.60;1.60;;;;;;;15.12;83.24;98578.16;5090828;28;20055;-81
2024/02/23 10:04:08;;;;;;;3.75;1.80;;;;;;;14.86;84.15;98579.78;5112927;28;20050;-81
2024/02/23 10:07:17;;;;;;;2.50;1.55;;;;;;;14.94;83.96;98587.72;5111254;27;21652;-80
2024/02/23 10:10:31;;;;;;;3.10;1.98;;;;;;;14.88;83.58;98588.56;5112336;28;20418;-81
2024/02/23 10:13:36;;;;;;;6.20;2.65;;;;;;;15.09;82.46;98592.09;5107540;28;20066;-82
2024/02/23 10:16:41;;;;;;;2.10;1.30;;;;;;;14.40;85.13;98595.03;5081307;28;20051;-82
2024/02/23 10:19:47;;;;;;;4.32;2.13;;;;;;;13.81;87.85;98610.88;5105225;28;20047;-82
2024/02/23 10:22:53;;;;;;;5.72;2.13;;;;;;;14.76;84.99;98617.16;5101781;28;20058;-80
2024/02/23 10:25:58;;;;;;;4.32;1.92;;;;;;;14.42;85.70;98595.66;5108969;28;20051;-78
2024/02/23 10:29:03;;;;;;;4.65;2.58;;;;;;;14.91;83.94;98587.31;5107145;27;20393;-81
2024/02/23 10:32:14;;;;;;;2.75;1.50;;;;;;;14.90;83.42;98591.88;5120776;27;20572;-80
2024/02/23 10:35:21;;;;;;;3.30;2.00;;;;;;;14.28;85.00;98593.91;5110591;28;20051;-81
2024/02/23 10:38:28;;;;;;;4.03;2.25;;;;;;;14.11;87.06;98579.94;5093663;28;20047;-79
2024/02/23 10:41:37;;;;;;;3.08;1.95;;;;;;;14.17;87.55;98581.81;5101814;28;20046;-80
2024/02/23 10:44:41;;;;;;;2.90;1.52;;;;;;;14.07;87.92;98581.34;5114310;28;20047;-81
2024/02/23 10:47:48;;;;;;;1.85;0.90;;;;;;;14.43;86.54;98569.50;5113500;28;20042;-79
2024/02/23 10:50:55;;;;;;;2.20;1.00;;;;;;;14.28;85.84;98565.06;5078013;28;20059;-79
2024/02/23 10:54:00;;;;;;;1.50;0.90;;;;;;;14.72;84.69;98561.91;5090064;28;20054;-79
2024/02/23 10:57:05;;;;;;;1.98;1.27;;;;;;;14.62;84.96;98545.25;5100544;28;20059;-78
2024/02/23 11:00:10;;;;;;;2.00;1.02;;;;;;;15.05;83.07;98564.66;5089724;28;20055;-81
2024/02/23 11:03:16;;;;;;;2.25;1.33;;;;;;;15.06;83.15;98569.00;5112757;28;20508;-79
2024/02/23 11:06:27;;;;;;;1.85;1.10;;;;;;;14.86;83.75;98562.78;5113240;28;20050;-83
2024/02/23 11:09:32;;;;;;;2.20;1.35;;;;;;;15.15;82.39;98553.44;5101259;28;20050;-79
2024/02/23 11:12:37;;;;;;;2.38;1.40;;;;;;;15.12;82.61;98573.59;5108229;28;20051;-81
2024/02/23 11:15:43;;;;;;;2.40;1.05;;;;;;;15.10;81.86;98577.56;5112119;28;20580;-81
2024/02/23 11:18:48;;;;;;;2.35;1.00;;;;;;;15.17;81.55;98605.41;5133006;27;20050;-81
2024/02/23 11:21:53;;;;;;;4.30;1.50;;;;;;;15.14;81.92;98595.00;5132002;27;20043;-80
2024/02/23 11:25:04;;;;;;;4.57;2.70;;;;;;;15.13;82.25;98590.66;5132249;27;20054;-80
2024/02/23 11:28:08;;;;;;;3.40;2.38;;;;;;;15.14;81.72;98595.00;5132781;28;20050;-80
2024/02/23 11:31:14;;;;;;;3.88;2.70;;;;;;;14.95;81.89;98583.16;5120512;28;20046;-80
2024/02/23 11:34:24;;;;;;;2.95;1.80;;;;;;;15.01;81.82;98584.19;5112892;28;20409;-79
2024/02/23 11:37:32;;;;;;;2.60;1.70;;;;;;;15.32;81.13;98584.41;5126645;28;20062;-81
2024/02/23 11:40:38;;;;;;;2.40;1.60;;;;;;;15.21;81.77;98588.56;5109734;28;20054;-80
2024/02/23 11:43:44;;;;;;;2.67;1.73;;;;;;;15.36;81.00;98574.84;5123866;28;20055;-81
2024/02/23 11:46:48;;;;;;;5.05;3.45;;;;;;;15.30;80.57;98578.41;5099905;28;20070;-79
2024/02/23 11:49:53;;;;;;;4.50;3.03;;;;;;;15.04;81.58;98564.84;5112908;28;20058;-84
2024/02/23 11:52:58;;;;;;;4.65;2.78;;;;;;;15.15;81.14;98561.53;5103073;28;20059;-82
2024/02/23 11:56:04;;;;;;;3.97;2.55;;;;;;;14.93;80.79;98564.44;5116565;28;20051;-82
2024/02/23 11:59:10;;;;;;;4.45;2.97;;;;;;;14.85;81.37;98574.59;5116694;28;20402;-82
2024/02/23 12:02:14;;;;;;;7.43;3.88;;;;;;;14.89;82.04;98579.38;5101493;28;20055;-79
2024/02/23 12:05:19;;;;;;;5.90;3.75;;;;;;;14.99;82.15;98560.06;5102341;28;20513;-81
2024/02/23 12:08:29;;;;;;;3.28;2.03;;;;;;;14.69;83.07;98554.19;5114757;28;20054;-79
2024/02/23 12:11:35;;;;;;;3.40;1.58;;;;;;;14.69;83.42;98548.81;5103440;27;20338;-79
2024/02/23 12:14:40;;;;;;;2.70;1.50;;;;;;;14.53;83.59;98551.91;5136946;27;20046;-81
2024/02/23 12:17:48;;;;;;;2.97;1.80;;;;;;;14.79;83.23;98545.69;5115585;27;20054;-76
2024/02/23 12:20:53;;;;;;;4.05;1.60;;;;;;;14.94;82.85;98536.38;5114327;28;20402;-77
2024/02/23 12:23:57;;;;;;;5.57;1.73;;;;;;;14.90;82.37;98537.84;5114666;28;20058;-78
2024/02/23 12:27:02;;;;;;;4.22;2.22;;;;;;;14.90;82.95;98542.41;5115078;28;20055;-76
2024/02/23 12:30:14;;;;;;;3.50;1.80;;;;;;;14.97;82.42;98540.53;5115910;28;20047;-77
2024/02/23 12:33:20;;;;;;;3.17;1.50;;;;;;;15.03;82.04;98538.88;5093646;28;20047;-78
2024/02/23 12:36:24;;;;;;;2.38;0.98;;;;;;;15.04;81.59;98537.81;5093784;28;20055;-80
2024/02/23 12:39:29;;;;;;;2.85;1.35;;;;;;;14.90;82.00;98542.41;5094244;28;20051;-79
2024/02/23 12:42:34;;;;;;;3.00;1.50;;;;;;;14.80;82.74;98547.38;5094052;28;20051;-80
2024/02/23 12:45:39;;;;;;;3.30;1.40;;;;;;;14.61;82.90;98543.63;5094117;28;20047;-78
2024/02/23 12:48:43;;;;;;;2.00;1.02;;;;;;;14.65;83.51;98550.25;5095611;28;20172;-78
2024/02/23 12:51:49;;;;;;;2.92;1.52;;;;;;;14.74;83.60;98537.41;5095991;28;20410;-80
2024/02/23 12:54:53;;;;;;;2.33;1.30;;;;;;;15.01;82.72;98535.56;5096191;28;20051;-79
2024/02/23 12:57:58;;;;;;;3.13;1.33;;;;;;;14.89;83.13;98552.38;5095931;28;20119;-79
2024/02/23 13:01:03;;;;;;;3.60;1.42;;;;;;;14.85;83.54;98564.63;5096280;28;20466;-80
2024/02/23 13:04:10;;;;;;;2.47;1.30;;;;;;;14.94;83.43;98558.00;5082141;28;20051;-80
2024/02/23 13:07:16;;;;;;;3.47;1.60;;;;;;;14.94;83.23;98538.25;5095853;28;20051;-80
2024/02/23 13:10:21;;;;;;;4.15;2.30;;;;;;;15.15;83.39;98535.34;5096027;28;20059;-80
2024/02/23 13:13:26;;;;;;;5.20;2.50;;;;;;;15.08;83.70;98531.81;5096423;28;20079;-78
2024/02/23 13:16:31;;;;;;;5.05;1.90;;;;;;;14.68;86.12;98536.34;5096017;28;20055;-79
2024/02/23 13:19:35;;;;;;;4.03;2.20;;;;;;;14.59;85.97;98518.66;5096052;28;20044;-78
2024/02/23 13:22:40;;;;;;;2.90;1.80;;;;;;;14.56;86.47;98521.78;5096037;28;20047;-79
2024/02/23 13:25:45;;;;;;;3.25;2.35;;;;;;;14.46;86.82;98518.66;5109332;28;20050;-78
2024/02/23 13:28:51;;;;;;;3.08;1.90;;;;;;;14.67;86.55;98513.06;5116231;28;20043;-78
2024/02/23 13:31:55;;;;;;;4.20;2.70;;;;;;;14.61;85.58;98508.50;5116248;28;20058;-78
2024/02/23 13:35:03;;;;;;;7.32;3.15;;;;;;;14.57;85.55;98501.84;5112025;27;20050;-78
2024/02/23 13:38:09;;;;;;;4.57;2.95;;;;;;;14.34;86.80;98507.59;5071324;28;20506;-79
2024/02/23 13:41:14;;;;;;;5.30;2.63;;;;;;;14.35;85.91;98505.72;5094619;28;20047;-80
2024/02/23 13:44:18;;;;;;;4.35;2.92;;;;;;;14.37;86.53;98498.25;5112028;27;20055;-79
2024/02/23 13:47:23;;;;;;;3.80;2.92;;;;;;;14.30;86.82;98511.75;5115008;28;20473;-81
2024/02/23 13:50:28;;;;;;;4.85;3.17;;;;;;;14.28;87.11;98521.06;5123198;27;20077;-77
2024/02/23 13:53:33;;;;;;;5.03;3.70;;;;;;;14.06;87.82;98511.44;5135725;27;20046;-80
2024/02/23 13:56:37;;;;;;;6.43;2.85;;;;;;;14.38;87.46;98496.41;5135729;27;20051;-79
2024/02/23 13:59:42;;;;;;;4.65;3.67;;;;;;;14.54;86.02;98493.34;5135552;27;20054;-78
2024/02/23 14:02:47;;;;;;;6.88;4.75;;;;;;;14.32;86.62;98503.44;5135601;27;20050;-78
2024/02/23 14:05:52;;;;;;;6.45;4.75;;;;;;;14.42;86.22;98509.28;5119383;27;20050;-77
2024/02/23 14:08:56;;;;;;;6.20;4.20;;;;;;;14.25;86.65;98511.50;5135185;27;20389;-78
2024/02/23 14:12:01;;;;;;;4.78;3.50;;;;;;;14.42;86.38;98506.59;5102038;28;20050;-77
2024/02/23 14:15:06;;;;;;;4.20;3.45;;;;;;;14.49;85.96;98520.97;5113645;28;20501;-77
2024/02/23 14:18:11;;;;;;;5.75;3.92;;;;;;;14.72;85.13;98517.84;5113656;27;20058;-77
2024/02/23 14:21:17;;;;;;;5.55;4.07;;;;;;;14.87;84.35;98513.94;5109838;28;20054;-78
2024/02/23 14:24:25;;;;;;;5.07;4.00;;;;;;;14.89;85.00;98503.75;5113810;28;20394;-78
2024/02/23 14:27:30;;;;;;;5.68;4.22;;;;;;;14.94;84.80;98506.66;5114236;28;20058;-77